Time;durP1;ratioP1;P1;durP2;ratioP2;P2;SDS_P1;SDS_P2;PMS_P1;PMS_P2;Temp;Humidity;BMP_temperature;BMP_pressure;BME280_temperature;BME280_humidity;BME280_pressure;Samples;Min_cycle;Max_cycle;Signal;HPM_P1;HPM_P2
2021/10/17 00:00:17;;;;;;;85.03;40.38;;;4.60;99.90;;;;;;5042607;28;20325;-67
2021/10/17 00:02:44;;;;;;;78.93;39.33;;;3.70;99.90;;;;;;5015473;28;20359;-67
2021/10/17 00:05:10;;;;;;;87.22;42.00;;;4.70;99.90;;;;;;5041362;28;20033;-67
2021/10/17 00:07:36;;;;;;;95.45;45.53;;;4.60;99.90;;;;;;5052033;28;20056;-67
2021/10/17 00:10:04;;;;;;;96.47;44.08;;;4.60;99.90;;;;;;5053101;28;20378;-67
2021/10/17 00:12:29;;;;;;;92.53;43.75;;;4.60;99.90;;;;;;5051194;28;20485;-67
2021/10/17 00:14:58;;;;;;;90.53;41.70;;;;;;;;;;5051181;28;20037;-67
2021/10/17 00:17:24;;;;;;;87.97;42.10;;;4.50;99.90;;;;;;5052930;28;20028;-67
2021/10/17 00:19:49;;;;;;;84.70;41.03;;;4.50;99.90;;;;;;5057315;28;20021;-67
2021/10/17 00:22:15;;;;;;;78.07;39.45;;;4.50;99.90;;;;;;5056299;28;20105;-67
2021/10/17 00:24:41;;;;;;;78.30;38.50;;;4.40;99.90;;;;;;5033223;28;20041;-67
2021/10/17 00:27:07;;;;;;;96.32;42.80;;;;;;;;;;5054174;28;20086;-67
2021/10/17 00:29:33;;;;;;;94.70;44.28;;;;;;;;;;5059391;28;20033;-67
2021/10/17 00:32:00;;;;;;;91.47;44.15;;;4.50;99.90;;;;;;5048517;28;20095;-67
2021/10/17 00:34:26;;;;;;;96.22;44.90;;;4.60;99.90;;;;;;5048371;28;20434;-67
2021/10/17 00:36:52;;;;;;;100.65;44.88;;;4.60;99.90;;;;;;5032097;28;20048;-68
2021/10/17 00:39:18;;;;;;;88.82;43.80;;;4.60;99.90;;;;;;5032605;28;20459;-67
2021/10/17 00:41:45;;;;;;;84.80;40.35;;;4.60;99.90;;;;;;5031892;28;20081;-67
2021/10/17 00:44:23;;;;;;;87.35;43.92;;;4.60;99.90;;;;;;5040546;28;20033;-67
2021/10/17 00:46:50;;;;;;;82.75;40.38;;;4.50;99.90;;;;;;5031302;28;20067;-67
2021/10/17 00:49:16;;;;;;;90.15;44.30;;;4.50;99.90;;;;;;5032349;28;20033;-67
2021/10/17 00:51:43;;;;;;;84.78;39.88;;;4.50;99.90;;;;;;5048324;28;20064;-67
2021/10/17 00:54:13;;;;;;;82.88;38.45;;;4.50;99.90;;;;;;5051319;28;20033;-67
2021/10/17 00:56:44;;;;;;;89.40;43.65;;;4.40;99.90;;;;;;5031495;28;20033;-67
2021/10/17 00:59:11;;;;;;;81.70;41.53;;;4.40;99.90;;;;;;5032037;28;20474;-67
2021/10/17 01:01:38;;;;;;;73.47;38.90;;;4.40;99.90;;;;;;5031999;28;20330;-67
2021/10/17 01:04:04;;;;;;;92.10;42.45;;;4.30;99.90;;;;;;5014617;28;20116;-67
2021/10/17 01:06:30;;;;;;;76.50;36.85;;;4.30;99.90;;;;;;5050160;28;20032;-67
2021/10/17 01:08:56;;;;;;;86.07;40.10;;;4.30;99.90;;;;;;5050995;28;20060;-68
2021/10/17 01:11:22;;;;;;;82.72;40.33;;;;;;;;;;5051519;28;20025;-67
2021/10/17 01:13:48;;;;;;;85.82;39.15;;;4.20;99.90;;;;;;5050892;28;20660;-67
2021/10/17 01:16:13;;;;;;;90.30;41.58;;;4.20;99.90;;;;;;5049477;28;20037;-67
2021/10/17 01:18:39;;;;;;;96.10;41.38;;;4.20;99.90;;;;;;5030941;28;20057;-67
2021/10/17 01:21:05;;;;;;;94.30;42.45;;;4.20;99.90;;;;;;5056251;28;20034;-67
2021/10/17 01:23:30;;;;;;;91.47;41.75;;;4.20;99.90;;;;;;5050542;28;20351;-67
2021/10/17 01:25:56;;;;;;;85.95;40.67;;;4.20;99.90;;;;;;5036645;28;20039;-68
2021/10/17 01:28:22;;;;;;;85.63;41.45;;;4.20;99.90;;;;;;5031830;28;20022;-67
2021/10/17 01:30:48;;;;;;;91.22;41.22;;;4.20;99.90;;;;;;5031175;28;20080;-67
2021/10/17 01:33:14;;;;;;;84.03;39.42;;;4.20;99.90;;;;;;5031827;28;20109;-67
2021/10/17 01:35:40;;;;;;;88.15;38.78;;;4.20;99.90;;;;;;5043530;28;20484;-67
2021/10/17 01:38:06;;;;;;;84.82;40.22;;;4.20;99.90;;;;;;5051674;28;20047;-67
2021/10/17 01:40:33;;;;;;;76.97;38.97;;;4.20;99.90;;;;;;5050821;28;20032;-67
2021/10/17 01:42:58;;;;;;;98.95;43.40;;;4.20;99.90;;;;;;5033007;28;20057;-67
2021/10/17 01:45:25;;;;;;;104.38;45.92;;;4.20;99.90;;;;;;5044309;28;20482;-67
2021/10/17 01:47:52;;;;;;;92.70;41.22;;;4.30;99.90;;;;;;5051343;28;20041;-67
2021/10/17 01:50:19;;;;;;;94.50;40.97;;;4.30;99.90;;;;;;5051457;28;20036;-67
2021/10/17 01:52:46;;;;;;;92.88;42.30;;;4.30;99.90;;;;;;5049861;28;20485;-67
2021/10/17 01:55:12;;;;;;;92.63;42.38;;;4.30;99.90;;;;;;5040022;28;20030;-68
2021/10/17 01:57:38;;;;;;;84.32;40.65;;;4.30;99.90;;;;;;5030456;28;20037;-67
2021/10/17 02:00:06;;;;;;;95.47;42.65;;;4.30;99.90;;;;;;5031491;28;20529;-67
2021/10/17 02:02:32;;;;;;;99.35;44.42;;;4.40;99.90;;;;;;5013046;28;20038;-67
2021/10/17 02:04:57;;;;;;;99.43;45.65;;;4.40;99.90;;;;;;5040624;28;20064;-66
2021/10/17 02:07:23;;;;;;;95.65;44.10;;;4.40;99.90;;;;;;5050241;28;20076;-67
2021/10/17 02:09:49;;;;;;;102.50;44.65;;;4.40;99.90;;;;;;5049971;28;20048;-67
2021/10/17 02:12:16;;;;;;;85.72;39.28;;;4.40;99.90;;;;;;5037561;28;20117;-67
2021/10/17 02:14:42;;;;;;;87.13;39.95;;;4.50;99.90;;;;;;5035740;28;20017;-66
2021/10/17 02:17:07;;;;;;;89.43;40.40;;;4.40;99.90;;;;;;5051019;28;20032;-67
2021/10/17 02:19:33;;;;;;;85.90;41.08;;;4.40;99.90;;;;;;5053286;28;20073;-66
2021/10/17 02:21:59;;;;;;;76.22;38.00;;;4.40;99.90;;;;;;5048665;28;20033;-68
2021/10/17 02:24:24;;;;;;;90.25;42.85;;;4.50;99.90;;;;;;5034771;28;20104;-67
2021/10/17 02:26:50;;;;;;;99.88;43.28;;;4.50;99.90;;;;;;5049758;28;20040;-66
2021/10/17 02:29:16;;;;;;;85.90;40.78;;;4.50;99.90;;;;;;5053886;28;20033;-66
2021/10/17 02:31:42;;;;;;;80.88;38.60;;;4.50;99.90;;;;;;5053255;28;20029;-67
2021/10/17 02:34:08;;;;;;;89.50;40.90;;;4.50;99.90;;;;;;5053621;28;20025;-68
2021/10/17 02:36:33;;;;;;;80.57;39.17;;;4.50;99.90;;;;;;5033832;28;20490;-68
2021/10/17 02:38:59;;;;;;;92.80;42.38;;;4.50;99.90;;;;;;5034723;28;20033;-68
2021/10/17 02:41:25;;;;;;;96.72;41.92;;;4.50;99.90;;;;;;5035969;28;20029;-68
2021/10/17 02:43:50;;;;;;;91.22;42.13;;;4.50;99.90;;;;;;5016323;28;20033;-68
2021/10/17 02:46:16;;;;;;;98.13;44.35;;;4.50;99.90;;;;;;5050786;28;20516;-68
2021/10/17 02:48:42;;;;;;;100.07;45.88;;;4.60;99.90;;;;;;5033848;28;20470;-66
2021/10/17 02:51:08;;;;;;;107.35;46.65;;;4.70;99.90;;;;;;5034243;28;20057;-68
2021/10/17 02:53:34;;;;;;;101.75;45.47;;;4.70;99.90;;;;;;5033763;28;20423;-66
2021/10/17 02:56:00;;;;;;;100.20;45.58;;;4.70;99.90;;;;;;5049974;28;20039;-66
2021/10/17 02:58:26;;;;;;;86.78;43.67;;;4.80;99.90;;;;;;5054496;28;20025;-66
2021/10/17 03:00:51;;;;;;;81.88;40.03;;;4.80;99.90;;;;;;5052889;28;20090;-68
2021/10/17 03:03:17;;;;;;;85.15;39.72;;;4.80;99.90;;;;;;5054553;28;20032;-67
2021/10/17 03:05:43;;;;;;;82.40;40.58;;;4.80;99.90;;;;;;5037607;28;20030;-67
2021/10/17 03:08:08;;;;;;;81.30;39.60;;;4.90;99.90;;;;;;5039304;28;20379;-66
2021/10/17 03:10:34;;;;;;;82.75;39.13;;;4.90;99.90;;;;;;5052600;28;20035;-66
2021/10/17 03:13:00;;;;;;;84.03;40.13;;;4.90;99.90;;;;;;5054218;28;20021;-66
2021/10/17 03:15:25;;;;;;;74.95;36.53;;;4.90;99.90;;;;;;5041264;28;20032;-66
2021/10/17 03:17:53;;;;;;;72.68;35.67;;;4.90;99.90;;;;;;5033467;28;20559;-68
2021/10/17 03:20:19;;;;;;;80.10;38.00;;;4.90;99.90;;;;;;5060172;28;20538;-67
2021/10/17 03:22:44;;;;;;;82.60;40.50;;;4.90;99.90;;;;;;5055004;28;20029;-66
2021/10/17 03:25:10;;;;;;;71.22;37.55;;;4.90;99.90;;;;;;5053339;28;20359;-66
2021/10/17 03:27:36;;;;;;;71.97;37.03;;;4.90;99.90;;;;;;5052896;28;20040;-66
2021/10/17 03:30:03;;;;;;;78.38;40.08;;;4.90;99.90;;;;;;5038850;28;20034;-66
2021/10/17 03:32:28;;;;;;;87.45;39.83;;;5.00;99.90;;;;;;5033844;28;20560;-67
2021/10/17 03:34:54;;;;;;;79.15;39.28;;;5.00;99.90;;;;;;5015689;28;20068;-66
2021/10/17 03:37:19;;;;;;;74.60;39.17;;;5.00;99.90;;;;;;5033485;28;20079;-67
2021/10/17 03:39:45;;;;;;;81.88;40.30;;;5.00;99.90;;;;;;5044126;28;20199;-66
2021/10/17 03:42:11;;;;;;;72.53;37.00;;;5.00;99.90;;;;;;5053393;28;20024;-67
2021/10/17 03:44:36;;;;;;;70.47;37.63;;;5.00;99.90;;;;;;5054761;28;20060;-67
2021/10/17 03:47:02;;;;;;;73.93;37.75;;;4.90;99.90;;;;;;5051244;28;20040;-66
2021/10/17 03:49:28;;;;;;;72.50;34.28;;;4.90;99.90;;;;;;5043550;28;20527;-66
2021/10/17 03:51:54;;;;;;;61.58;32.45;;;4.90;99.90;;;;;;5052506;28;20108;-68
2021/10/17 03:54:19;;;;;;;68.25;34.20;;;4.80;99.90;;;;;;5048448;28;20051;-68
2021/10/17 03:56:45;;;;;;;61.55;33.38;;;4.80;99.90;;;;;;5032224;28;20112;-67
2021/10/17 03:59:10;;;;;;;63.20;32.47;;;4.70;99.90;;;;;;5040063;28;20458;-67
2021/10/17 04:01:36;;;;;;;70.10;36.13;;;4.70;99.90;;;;;;5051662;28;20029;-66
2021/10/17 04:04:02;;;;;;;64.95;34.22;;;4.60;99.90;;;;;;5052961;28;20057;-67
2021/10/17 04:06:27;;;;;;;64.68;34.25;;;4.60;99.90;;;;;;5052708;28;20488;-67
2021/10/17 04:08:53;;;;;;;61.28;32.75;;;4.60;99.90;;;;;;5046986;28;20064;-67
2021/10/17 04:11:18;;;;;;;61.63;33.20;;;4.50;99.90;;;;;;5032679;28;20034;-68
2021/10/17 04:13:45;;;;;;;65.25;34.40;;;4.50;99.90;;;;;;5035354;28;20493;-66
2021/10/17 04:16:11;;;;;;;68.78;35.13;;;4.50;99.90;;;;;;5052937;28;20051;-67
2021/10/17 04:18:37;;;;;;;77.85;40.10;;;4.50;99.90;;;;;;5049255;28;20103;-67
2021/10/17 04:21:03;;;;;;;79.75;38.95;;;4.50;99.90;;;;;;5055480;28;20025;-66
2021/10/17 04:23:28;;;;;;;79.50;40.20;;;4.60;99.90;;;;;;5032959;28;20035;-68
2021/10/17 04:25:54;;;;;;;80.85;39.95;;;4.60;99.90;;;;;;5031655;28;20030;-68
2021/10/17 04:28:20;;;;;;;71.55;37.53;;;4.60;99.90;;;;;;5032544;28;20026;-68
2021/10/17 04:30:45;;;;;;;69.72;35.88;;;4.60;99.90;;;;;;5051160;28;20029;-68
2021/10/17 04:33:11;;;;;;;80.40;38.88;;;4.60;99.90;;;;;;5052709;28;20025;-69
2021/10/17 04:35:38;;;;;;;87.63;44.40;;;4.60;99.90;;;;;;5051871;28;20151;-68
2021/10/17 04:38:05;;;;;;;89.50;42.60;;;4.60;99.90;;;;;;5051989;28;20470;-68
2021/10/17 04:40:32;;;;;;;78.53;39.00;;;4.70;99.90;;;;;;5034382;28;20033;-68
2021/10/17 04:42:59;;;;;;;82.68;42.10;;;4.70;99.90;;;;;;5050763;28;20040;-68
2021/10/17 04:45:24;;;;;;;87.00;41.95;;;4.70;99.90;;;;;;5038206;28;20054;-68
2021/10/17 04:47:50;;;;;;;80.00;41.80;;;4.70;99.90;;;;;;5031272;28;20029;-68
2021/10/17 04:50:16;;;;;;;79.93;39.47;;;4.80;99.90;;;;;;5037030;28;20120;-68
2021/10/17 04:52:41;;;;;;;79.75;38.85;;;4.80;99.90;;;;;;5031282;28;20037;-68
2021/10/17 04:55:08;;;;;;;70.55;36.10;;;4.80;99.90;;;;;;5032163;28;20021;-68
2021/10/17 04:57:35;;;;;;;72.65;37.97;;;4.80;99.90;;;;;;5032018;28;20482;-68
2021/10/17 05:00:01;;;;;;;66.55;35.53;;;4.80;99.90;;;;;;5047214;28;20033;-68
2021/10/17 05:02:27;;;;;;;65.65;34.88;;;4.80;99.90;;;;;;5052077;28;20485;-68
2021/10/17 05:04:52;;;;;;;66.50;34.65;;;4.80;99.90;;;;;;5051003;28;20033;-68
2021/10/17 05:07:18;;;;;;;66.43;34.28;;;4.80;99.90;;;;;;5051750;28;20040;-68
2021/10/17 05:09:44;;;;;;;70.75;35.70;;;4.70;99.90;;;;;;5036348;28;20466;-68
2021/10/17 05:12:10;;;;;;;75.68;38.90;;;4.80;99.90;;;;;;5042550;28;20029;-68
2021/10/17 05:14:35;;;;;;;78.38;39.47;;;4.80;99.90;;;;;;5051781;28;20044;-67
2021/10/17 05:17:01;;;;;;;72.45;39.35;;;4.80;99.90;;;;;;5051374;28;20068;-68
2021/10/17 05:19:27;;;;;;;70.93;37.70;;;4.90;99.90;;;;;;5042750;28;20057;-68
2021/10/17 05:21:52;;;;;;;71.05;37.72;;;4.90;99.90;;;;;;5053215;28;20025;-65
2021/10/17 05:24:18;;;;;;;66.90;36.90;;;4.90;99.90;;;;;;5031780;28;20087;-66
2021/10/17 05:26:43;;;;;;;60.95;34.00;;;4.90;99.90;;;;;;5030889;28;20040;-67
2021/10/17 05:29:09;;;;;;;61.63;33.40;;;5.00;99.90;;;;;;5042294;28;20063;-66
2021/10/17 05:31:35;;;;;;;51.00;31.20;;;5.00;99.90;;;;;;5033173;28;20041;-68
2021/10/17 05:34:00;;;;;;;52.08;30.98;;;5.00;99.90;;;;;;5050818;28;20040;-65
2021/10/17 05:36:26;;;;;;;50.47;30.92;;;5.00;99.90;;;;;;5049225;28;20520;-68
2021/10/17 05:38:52;;;;;;;46.20;30.50;;;5.00;99.90;;;;;;5042566;28;20037;-67
2021/10/17 05:41:17;;;;;;;45.00;27.50;;;5.00;99.90;;;;;;5033916;28;20029;-68
2021/10/17 05:43:43;;;;;;;42.20;27.10;;;5.00;99.90;;;;;;5050622;28;20033;-68
2021/10/17 05:46:09;;;;;;;44.30;25.30;;;5.00;99.90;;;;;;5047947;28;20025;-67
2021/10/17 05:48:34;;;;;;;42.45;25.25;;;5.00;99.90;;;;;;5036639;28;20037;-68
2021/10/17 05:51:00;;;;;;;39.00;26.08;;;5.00;99.90;;;;;;5050694;28;20429;-68
2021/10/17 05:53:26;;;;;;;38.90;24.63;;;5.00;99.90;;;;;;5050112;28;20029;-68
2021/10/17 05:55:51;;;;;;;40.55;26.02;;;4.90;99.90;;;;;;5040450;28;20029;-68
2021/10/17 05:58:17;;;;;;;38.17;24.30;;;4.90;99.90;;;;;;5033316;28;20021;-68
2021/10/17 06:00:43;;;;;;;37.97;22.90;;;4.90;99.90;;;;;;5050521;28;20032;-68
2021/10/17 06:03:08;;;;;;;33.20;22.55;;;4.90;99.90;;;;;;5036401;28;20060;-68
2021/10/17 06:05:34;;;;;;;34.45;22.58;;;4.90;99.90;;;;;;5036435;28;20043;-68
2021/10/17 06:08:00;;;;;;;32.55;21.20;;;4.80;99.90;;;;;;5036635;28;20725;-68
2021/10/17 06:10:26;;;;;;;29.38;19.25;;;4.80;99.90;;;;;;5057230;28;20359;-68
2021/10/17 06:12:52;;;;;;;29.13;19.85;;;4.80;99.90;;;;;;5043638;28;20033;-68
2021/10/17 06:15:19;;;;;;;28.85;19.52;;;4.80;99.90;;;;;;5066751;28;20036;-68
2021/10/17 06:17:46;;;;;;;25.88;18.45;;;4.80;99.90;;;;;;5070385;28;20029;-68
2021/10/17 06:20:12;;;;;;;26.45;18.50;;;4.80;99.90;;;;;;5063680;28;20029;-68
2021/10/17 06:22:38;;;;;;;28.25;18.38;;;4.80;99.90;;;;;;5060928;28;20119;-68
2021/10/17 06:25:04;;;;;;;29.83;19.88;;;4.90;99.90;;;;;;5060673;28;20107;-68
2021/10/17 06:27:30;;;;;;;29.88;19.70;;;4.90;99.90;;;;;;5042514;28;20029;-68
2021/10/17 06:29:55;;;;;;;28.77;19.05;;;4.90;99.90;;;;;;5063913;28;20036;-69
2021/10/17 06:32:21;;;;;;;28.05;18.35;;;4.90;99.90;;;;;;5065012;28;20024;-68
2021/10/17 06:34:47;;;;;;;28.30;20.23;;;4.90;99.90;;;;;;5063352;28;20029;-68
2021/10/17 06:37:12;;;;;;;25.67;18.55;;;4.90;99.90;;;;;;5053960;28;20029;-68
2021/10/17 06:39:38;;;;;;;30.73;18.52;;;5.00;99.90;;;;;;5054028;28;20103;-69
2021/10/17 06:42:04;;;;;;;27.48;17.75;;;5.00;99.90;;;;;;5058340;28;20066;-69
2021/10/17 06:44:30;;;;;;;26.63;17.95;;;5.10;99.90;;;;;;5066261;28;20028;-68
2021/10/17 06:46:56;;;;;;;24.77;16.95;;;5.20;99.90;;;;;;5052833;28;20036;-67
2021/10/17 06:49:21;;;;;;;23.67;16.98;;;5.20;99.90;;;;;;5053489;28;20029;-67
2021/10/17 06:51:47;;;;;;;29.17;18.58;;;5.30;99.90;;;;;;5053397;28;20025;-67
2021/10/17 06:54:13;;;;;;;24.27;17.25;;;5.30;99.90;;;;;;5054275;28;20029;-67
2021/10/17 06:56:38;;;;;;;24.13;16.90;;;5.40;99.90;;;;;;5053940;28;20033;-67
2021/10/17 06:59:04;;;;;;;24.48;17.60;;;5.50;99.90;;;;;;5053353;28;20033;-67
2021/10/17 07:01:30;;;;;;;26.38;17.65;;;5.60;99.90;;;;;;5054270;28;20044;-66
2021/10/17 07:03:55;;;;;;;29.63;19.02;;;5.60;99.90;;;;;;5054425;28;20032;-69
2021/10/17 07:06:21;;;;;;;26.15;18.38;;;5.60;99.90;;;;;;5057657;28;20036;-67
2021/10/17 07:08:47;;;;;;;22.80;16.80;;;5.70;99.90;;;;;;5054093;28;20049;-67
2021/10/17 07:11:12;;;;;;;22.88;17.25;;;5.70;99.90;;;;;;5054221;28;20025;-67
2021/10/17 07:13:38;;;;;;;24.27;17.08;;;5.80;99.90;;;;;;5053360;28;20036;-66
2021/10/17 07:16:04;;;;;;;27.25;19.13;;;5.80;99.90;;;;;;5053078;28;20020;-66
2021/10/17 07:18:30;;;;;;;27.45;16.80;;;5.90;99.90;;;;;;5052337;28;20035;-66
2021/10/17 07:20:56;;;;;;;23.73;17.02;;;6.00;99.90;;;;;;5067668;28;20064;-66
2021/10/17 07:23:22;;;;;;;22.52;16.13;;;6.00;99.90;;;;;;5035402;28;20040;-66
2021/10/17 07:25:47;;;;;;;25.35;17.38;;;6.10;99.90;;;;;;5033131;28;20139;-67
2021/10/17 07:28:13;;;;;;;26.38;18.67;;;6.20;99.90;;;;;;5033904;28;20034;-68
2021/10/17 07:30:39;;;;;;;24.65;17.58;;;6.30;99.90;;;;;;5033798;28;20065;-67
2021/10/17 07:33:05;;;;;;;22.67;17.17;;;6.40;99.90;;;;;;5042608;28;20083;-68
2021/10/17 07:35:31;;;;;;;25.58;18.70;;;6.40;99.90;;;;;;5051548;28;20067;-69
2021/10/17 07:37:57;;;;;;;26.58;18.25;;;6.50;99.90;;;;;;5051138;28;20116;-69
2021/10/17 07:40:24;;;;;;;29.75;18.60;;;6.60;99.90;;;;;;5053529;28;20024;-69
2021/10/17 07:42:50;;;;;;;22.02;17.33;;;6.70;99.90;;;;;;5052587;28;20017;-67
2021/10/17 07:45:16;;;;;;;23.35;16.80;;;6.80;99.90;;;;;;5053428;28;20027;-67
2021/10/17 07:47:41;;;;;;;24.60;17.35;;;6.80;99.90;;;;;;5049529;28;20383;-67
2021/10/17 07:50:08;;;;;;;24.88;17.05;;;6.90;99.90;;;;;;5043468;28;20040;-67
2021/10/17 07:52:34;;;;;;;26.95;18.92;;;7.00;99.90;;;;;;5051349;28;20031;-67
2021/10/17 07:55:00;;;;;;;25.02;18.23;;;7.10;99.90;;;;;;5052392;28;20032;-67
2021/10/17 07:57:26;;;;;;;23.02;17.80;;;7.20;99.90;;;;;;5053329;28;20075;-66
2021/10/17 07:59:52;;;;;;;24.00;16.65;;;7.20;99.90;;;;;;5051852;28;20025;-66
2021/10/17 08:02:18;;;;;;;24.40;17.17;;;7.30;99.90;;;;;;5052159;28;20500;-66
2021/10/17 08:04:48;;;;;;;26.17;18.45;;;7.50;99.90;;;;;;5050723;28;20025;-66
2021/10/17 08:07:15;;;;;;;24.08;16.15;;;7.60;99.90;;;;;;5039437;28;20037;-66
2021/10/17 08:09:41;;;;;;;23.80;17.80;;;7.70;99.90;;;;;;5039303;28;20037;-72
2021/10/17 08:12:07;;;;;;;21.63;16.35;;;7.70;99.90;;;;;;5052052;28;20059;-70
2021/10/17 08:14:32;;;;;;;22.98;16.73;;;7.80;99.90;;;;;;5043756;28;20029;-71
2021/10/17 08:16:58;;;;;;;20.33;15.52;;;7.80;99.90;;;;;;5032275;28;20040;-70
2021/10/17 08:19:24;;;;;;;19.90;15.27;;;7.80;99.90;;;;;;5036476;28;20049;-72
2021/10/17 08:21:49;;;;;;;19.92;14.68;;;7.90;99.90;;;;;;5055829;28;20028;-75
2021/10/17 08:24:15;;;;;;;18.20;14.63;;;8.00;99.90;;;;;;5027522;28;20025;-69
2021/10/17 08:26:42;;;;;;;19.13;14.35;;;8.00;99.90;;;;;;5051710;28;20029;-71
2021/10/17 08:29:07;;;;;;;21.15;16.05;;;8.00;99.90;;;;;;5052313;28;20037;-71
2021/10/17 08:31:33;;;;;;;22.05;15.82;;;8.10;99.90;;;;;;5052437;28;20078;-72
2021/10/17 08:33:59;;;;;;;21.95;16.48;;;8.20;99.90;;;;;;5051113;28;20029;-71
2021/10/17 08:36:24;;;;;;;22.67;16.77;;;8.30;99.90;;;;;;5052565;28;20041;-71
2021/10/17 08:38:50;;;;;;;19.92;15.13;;;8.20;99.90;;;;;;5048886;28;20113;-71
2021/10/17 08:41:16;;;;;;;21.83;16.27;;;8.20;99.90;;;;;;5036899;28;20036;-71
2021/10/17 08:43:42;;;;;;;21.83;16.35;;;8.30;99.90;;;;;;5050636;28;20082;-71
2021/10/17 08:46:11;;;;;;;21.63;15.50;;;8.30;99.90;;;;;;5051301;28;20036;-71
2021/10/17 08:48:37;;;;;;;20.52;15.88;;;8.50;99.90;;;;;;5052466;28;20072;-70
2021/10/17 08:51:05;;;;;;;20.63;16.00;;;8.40;99.90;;;;;;5043527;28;20088;-71
2021/10/17 08:53:31;;;;;;;21.63;16.10;;;8.50;99.90;;;;;;5032175;28;20435;-71
2021/10/17 08:55:57;;;;;;;21.90;16.40;;;8.60;99.90;;;;;;5031394;28;20108;-71
2021/10/17 08:58:23;;;;;;;24.00;17.35;;;8.70;99.90;;;;;;5014659;28;20038;-71
2021/10/17 09:00:49;;;;;;;23.50;17.50;;;8.70;99.90;;;;;;5048587;28;20056;-69
2021/10/17 09:03:33;;;;;;;23.58;17.90;;;8.70;99.90;;;;;;5051607;28;20063;-70
2021/10/17 09:06:17;;;;;;;26.65;18.00;;;8.80;99.90;;;;;;5033984;28;20509;-70
2021/10/17 09:08:43;;;;;;;25.00;17.88;;;8.80;99.90;;;;;;5049038;28;20056;-71
2021/10/17 09:11:10;;;;;;;23.92;17.50;;;8.90;99.90;;;;;;5031348;28;20620;-72
2021/10/17 09:13:35;;;;;;;28.73;17.75;;;8.90;99.90;;;;;;5034811;28;20032;-71
2021/10/17 09:16:21;;;;;;;22.55;17.17;;;9.00;99.90;;;;;;5050931;28;20029;-71
2021/10/17 09:18:47;;;;;;;20.05;15.73;;;9.00;99.90;;;;;;5049377;28;20030;-68
2021/10/17 09:21:12;;;;;;;25.52;18.40;;;9.00;99.90;;;;;;5065021;28;20474;-71
2021/10/17 09:23:40;;;;;;;23.42;17.27;;;9.20;99.90;;;;;;5055637;28;20481;-71
2021/10/17 09:26:10;;;;;;;23.50;17.90;;;9.30;99.90;;;;;;5050725;28;20108;-72
2021/10/17 09:28:37;;;;;;;23.58;16.77;;;9.30;99.90;;;;;;5051636;28;20041;-71
2021/10/17 09:31:06;;;;;;;22.63;16.75;;;9.30;99.90;;;;;;5050937;28;20021;-72
2021/10/17 09:33:34;;;;;;;23.95;17.90;;;9.40;99.90;;;;;;5035510;28;20479;-72
2021/10/17 09:36:24;;;;;;;23.60;17.88;;;9.40;99.90;;;;;;5031054;28;20032;-71
2021/10/17 09:38:55;;;;;;;22.33;17.20;;;9.60;99.90;;;;;;5030981;28;20112;-68
2021/10/17 09:41:33;;;;;;;26.50;18.92;;;9.70;99.90;;;;;;5031580;28;20033;-71
2021/10/17 09:44:00;;;;;;;24.48;18.65;;;9.80;99.90;;;;;;5034100;28;20029;-71
2021/10/17 09:46:27;;;;;;;24.60;18.45;;;9.80;99.90;;;;;;5031573;28;20037;-71
2021/10/17 09:48:54;;;;;;;23.67;17.63;;;9.80;99.90;;;;;;5030671;28;20083;-70
2021/10/17 09:51:28;;;;;;;24.65;18.10;;;9.80;99.90;;;;;;5031575;28;20033;-73
2021/10/17 09:53:59;;;;;;;24.95;18.58;;;9.60;99.90;;;;;;5033588;28;20056;-70
2021/10/17 09:56:36;;;;;;;28.35;18.88;;;9.60;99.90;;;;;;5051782;28;20127;-71
2021/10/17 09:59:02;;;;;;;25.15;17.90;;;9.60;99.90;;;;;;5050788;28;20021;-72
2021/10/17 10:01:28;;;;;;;25.05;18.38;;;9.60;99.90;;;;;;5032345;28;20025;-71
2021/10/17 10:03:56;;;;;;;24.58;17.50;;;9.70;99.90;;;;;;5030441;28;20030;-71
2021/10/17 10:06:23;;;;;;;26.30;18.33;;;9.70;99.90;;;;;;5031290;28;20037;-71
2021/10/17 10:08:51;;;;;;;25.65;17.65;;;9.80;99.90;;;;;;5040659;28;20057;-67
2021/10/17 10:11:23;;;;;;;23.70;17.83;;;9.90;99.90;;;;;;5051334;28;20086;-70
2021/10/17 10:13:52;;;;;;;22.75;17.35;;;10.00;99.90;;;;;;5048037;28;20463;-68
2021/10/17 10:16:21;;;;;;;24.25;17.27;;;10.00;99.90;;;;;;5031736;28;20030;-72
2021/10/17 10:18:53;;;;;;;23.70;17.55;;;10.00;99.90;;;;;;5031353;28;20026;-72
2021/10/17 10:21:20;;;;;;;26.95;17.45;;;10.20;99.90;;;;;;5033967;28;20041;-72
2021/10/17 10:23:49;;;;;;;23.67;17.35;;;10.30;99.90;;;;;;5032601;28;20037;-72
2021/10/17 10:26:15;;;;;;;25.67;17.40;;;10.30;99.90;;;;;;5050505;28;20033;-71
2021/10/17 10:28:42;;;;;;;23.40;16.45;;;10.40;99.90;;;;;;5050865;28;20029;-76
2021/10/17 10:31:07;;;;;;;27.35;19.05;;;10.50;99.90;;;;;;5050551;28;20025;-73
2021/10/17 10:33:51;;;;;;;27.35;17.02;;;10.70;99.90;;;;;;5050225;28;20037;-74
2021/10/17 10:36:17;;;;;;;29.17;18.40;;;10.70;99.90;;;;;;5030617;28;20029;-72
2021/10/17 10:38:52;;;;;;;24.27;17.75;;;10.70;99.90;;;;;;5031270;28;20459;-73
2021/10/17 10:41:19;;;;;;;23.27;16.52;;;10.80;99.90;;;;;;5050806;28;20174;-71
2021/10/17 10:43:45;;;;;;;24.20;18.48;;;10.80;99.90;;;;;;5050130;28;20477;-72
2021/10/17 10:46:11;;;;;;;23.88;16.92;;;10.80;99.90;;;;;;5030216;28;20022;-72
2021/10/17 10:48:47;;;;;;;28.48;20.38;;;10.90;99.90;;;;;;5031565;28;20029;-74
2021/10/17 10:51:40;;;;;;;23.85;17.33;;;10.90;99.90;;;;;;5033803;28;20037;-75
2021/10/17 10:54:27;;;;;;;24.40;17.60;;;11.00;99.90;;;;;;5031434;28;20041;-78
2021/10/17 10:56:55;;;;;;;27.45;18.73;;;11.00;99.90;;;;;;5053475;28;20033;-71
2021/10/17 10:59:48;;;;;;;26.20;19.13;;;11.20;99.90;;;;;;5051258;28;20033;-76
2021/10/17 11:02:17;;;;;;;28.08;19.13;;;11.40;99.90;;;;;;5034815;28;20475;-77
2021/10/17 11:04:44;;;;;;;25.70;19.73;;;11.60;99.90;;;;;;5036465;28;20044;-72
2021/10/17 11:07:34;;;;;;;28.33;20.50;;;11.70;99.90;;;;;;5039140;28;20044;-76
2021/10/17 11:10:21;;;;;;;28.08;21.48;;;11.70;99.90;;;;;;5043679;28;20493;-83
2021/10/17 11:12:48;;;;;;;29.48;20.35;;;11.60;99.90;;;;;;5055381;28;20493;-86
2021/10/17 11:15:16;;;;;;;25.42;18.33;;;11.50;99.90;;;;;;5052155;28;20028;-78
2021/10/17 11:18:19;;;;;;;25.63;19.52;;;11.30;99.90;;;;;;5035698;28;20036;-80
2021/10/17 11:20:49;;;;;;;26.92;20.25;;;11.30;99.90;;;;;;5060224;28;20102;-74
2021/10/17 11:23:25;;;;;;;25.85;20.08;;;11.50;99.90;;;;;;5033291;28;20028;-72
2021/10/17 11:25:57;;;;;;;27.55;21.05;;;11.50;99.90;;;;;;5033865;28;20034;-72
2021/10/17 11:28:25;;;;;;;24.15;18.15;;;11.40;99.90;;;;;;5033623;28;20063;-72
2021/10/17 11:31:01;;;;;;;26.80;18.50;;;11.20;99.90;;;;;;5033734;28;20076;-71
2021/10/17 11:33:27;;;;;;;27.40;19.27;;;11.10;99.90;;;;;;5033901;28;20032;-71
2021/10/17 11:35:55;;;;;;;25.17;18.92;;;11.00;99.90;;;;;;5050272;28;20072;-68
2021/10/17 11:38:21;;;;;;;23.17;17.25;;;11.00;99.90;;;;;;5053028;28;20123;-70
2021/10/17 11:40:47;;;;;;;25.92;17.88;;;11.10;99.90;;;;;;5053284;28;20108;-71
2021/10/17 11:43:13;;;;;;;23.85;16.92;;;11.20;99.90;;;;;;5052585;28;20028;-71
2021/10/17 11:45:41;;;;;;;22.95;16.90;;;11.30;99.90;;;;;;5037848;28;20029;-72
2021/10/17 11:48:14;;;;;;;20.48;15.60;;;11.50;99.90;;;;;;5032387;28;20487;-72
2021/10/17 11:50:43;;;;;;;22.80;16.35;;;11.60;99.90;;;;;;5033099;28;20092;-71
2021/10/17 11:53:14;;;;;;;21.67;15.90;;;11.80;99.90;;;;;;5032447;28;20494;-71
2021/10/17 11:55:39;;;;;;;23.85;17.08;;;11.90;99.90;;;;;;5049708;28;20061;-71
2021/10/17 11:58:18;;;;;;;21.38;16.52;;;11.90;99.90;;;;;;5052438;28;20082;-71
2021/10/17 12:00:46;;;;;;;25.17;17.88;;;12.00;99.90;;;;;;5052173;28;20033;-70
2021/10/17 12:03:12;;;;;;;24.88;17.50;;;12.00;99.90;;;;;;5049642;28;20459;-69
2021/10/17 12:05:44;;;;;;;25.42;17.73;;;11.80;99.90;;;;;;5053003;28;20071;-71
2021/10/17 12:08:40;;;;;;;25.30;18.23;;;11.70;99.90;;;;;;5049731;28;20136;-70
2021/10/17 12:11:11;;;;;;;21.58;16.75;;;11.60;99.90;;;;;;5035011;28;20041;-71
2021/10/17 12:13:51;;;;;;;24.88;17.95;;;11.70;99.90;;;;;;5052627;28;20029;-72
2021/10/17 12:16:18;;;;;;;28.65;18.02;;;11.80;99.90;;;;;;5050666;28;20071;-72
2021/10/17 12:18:48;;;;;;;21.90;16.33;;;12.00;99.90;;;;;;5052985;28;20039;-70
2021/10/17 12:21:17;;;;;;;26.67;18.95;;;12.00;99.90;;;;;;5068724;28;20051;-71
2021/10/17 12:23:45;;;;;;;24.27;18.55;;;12.10;99.90;;;;;;5022573;28;20065;-72
2021/10/17 12:26:16;;;;;;;23.55;17.95;;;12.00;99.90;;;;;;5032084;28;20021;-73
2021/10/17 12:28:42;;;;;;;29.35;19.90;;;12.00;99.90;;;;;;5032804;28;20063;-73
2021/10/17 12:31:08;;;;;;;27.52;19.88;;;11.90;99.90;;;;;;5056844;28;20358;-76
2021/10/17 12:33:37;;;;;;;27.10;20.63;;;11.70;99.90;;;;;;5058157;28;20029;-72
2021/10/17 12:36:05;;;;;;;24.92;18.15;;;11.50;99.90;;;;;;5058799;28;20028;-72